createdAt,value
2023-01-30T00:00:32.096Z,95.68
2023-01-30T00:01:32.051Z,95.68
2023-01-30T00:02:32.058Z,95.79
2023-01-30T00:03:32.580Z,95.79
2023-01-30T00:04:32.077Z,95.79
2023-01-30T00:05:32.731Z,95.79
2023-01-30T00:06:32.026Z,95.90
2023-01-30T00:07:32.016Z,95.90
2023-01-30T00:08:32.756Z,95.90
2023-01-30T00:09:31.964Z,95.86
2023-01-30T00:10:32.058Z,95.86
2023-01-30T00:11:31.946Z,95.96
2023-01-30T00:12:32.968Z,95.96
2023-01-30T00:13:31.910Z,95.96
2023-01-30T00:14:31.945Z,96.06
2023-01-30T00:15:31.981Z,96.06
2023-01-30T00:16:31.930Z,96.17
2023-01-30T00:17:32.611Z,96.17
2023-01-30T00:18:31.906Z,96.27
2023-01-30T00:19:31.866Z,96.27
2023-01-30T00:20:31.842Z,96.27
2023-01-30T00:21:31.833Z,96.37
2023-01-30T00:22:31.859Z,96.37
2023-01-30T00:23:31.811Z,96.37
2023-01-30T00:24:31.987Z,96.48
2023-01-30T00:25:31.969Z,96.48
2023-01-30T00:26:31.830Z,96.48
2023-01-30T00:27:31.755Z,96.59
2023-01-30T00:28:31.774Z,96.59
2023-01-30T00:29:32.479Z,96.59
2023-01-30T00:30:31.819Z,96.69
2023-01-30T00:31:31.792Z,96.69
2023-01-30T00:32:31.703Z,96.69
2023-01-30T00:33:31.675Z,96.75
2023-01-30T00:34:31.695Z,96.75
2023-01-30T00:35:31.661Z,96.75
2023-01-30T00:36:31.669Z,96.75
2023-01-30T00:37:31.638Z,96.75
2023-01-30T00:38:31.663Z,96.75
2023-01-30T00:39:31.624Z,96.75
2023-01-30T00:40:31.653Z,96.86
2023-01-30T00:41:31.644Z,96.86
2023-01-30T00:42:31.607Z,96.86
2023-01-30T00:43:31.567Z,96.86
2023-01-30T00:44:31.681Z,96.96
2023-01-30T00:45:31.570Z,96.96
2023-01-30T00:46:31.569Z,96.96
2023-01-30T00:47:31.600Z,96.96
2023-01-30T00:48:31.870Z,96.96
2023-01-30T00:49:31.969Z,96.96
2023-01-30T00:50:31.531Z,96.96
2023-01-30T00:51:31.539Z,96.96
2023-01-30T00:52:31.490Z,97.06
2023-01-30T00:53:31.515Z,97.06
2023-01-30T00:54:31.484Z,97.06
2023-01-30T00:55:31.462Z,97.06
2023-01-30T00:56:31.472Z,97.06
2023-01-30T00:57:31.408Z,97.06
2023-01-30T00:58:31.468Z,97.06
2023-01-30T00:59:31.419Z,97.06
2023-01-30T01:00:31.410Z,97.06
2023-01-30T01:01:31.390Z,97.02
2023-01-30T01:02:31.378Z,97.02
2023-01-30T01:03:31.357Z,97.02
2023-01-30T01:04:31.885Z,97.13
2023-01-30T01:05:31.346Z,97.13
2023-01-30T01:06:31.335Z,97.13
2023-01-30T01:07:31.302Z,97.13
2023-01-30T01:08:31.343Z,97.13
2023-01-30T01:09:32.278Z,97.13
2023-01-30T01:10:31.316Z,97.13
2023-01-30T01:11:31.335Z,97.13
2023-01-30T01:12:31.354Z,97.13
2023-01-30T01:13:31.249Z,97.13
2023-01-30T01:14:31.298Z,97.13
2023-01-30T01:15:31.224Z,97.23
2023-01-30T01:16:31.372Z,97.23
2023-01-30T01:17:31.214Z,97.23
2023-01-30T01:18:31.203Z,97.23
2023-01-30T01:19:31.198Z,97.23
2023-01-30T01:20:31.218Z,97.23
2023-01-30T01:21:31.208Z,97.19
2023-01-30T01:22:31.160Z,97.23
2023-01-30T01:23:31.204Z,97.19
2023-01-30T01:24:31.142Z,97.19
2023-01-30T01:25:31.110Z,97.19
2023-01-30T01:26:31.152Z,97.19
2023-01-30T01:27:31.078Z,97.19
2023-01-30T01:28:31.087Z,97.19
2023-01-30T01:29:31.134Z,97.19
2023-01-30T01:30:31.086Z,97.19
2023-01-30T01:31:32.033Z,97.19
2023-01-30T01:32:31.049Z,97.19
2023-01-30T01:33:31.011Z,97.19
2023-01-30T01:34:31.053Z,97.29
2023-01-30T01:35:31.056Z,97.29
2023-01-30T01:37:31.967Z,97.19
2023-01-30T01:38:30.958Z,97.19
2023-01-30T01:39:31.638Z,97.29
2023-01-30T01:40:30.934Z,97.29
2023-01-30T01:41:30.960Z,97.19
2023-01-30T01:42:30.982Z,97.19
2023-01-30T01:43:30.938Z,97.29
2023-01-30T01:44:30.898Z,97.29
2023-01-30T01:45:30.959Z,97.29
2023-01-30T01:46:30.885Z,97.29
2023-01-30T01:47:30.896Z,97.29
2023-01-30T01:48:30.847Z,97.29
2023-01-30T01:49:31.262Z,97.29
2023-01-30T01:50:31.634Z,97.39
2023-01-30T01:51:30.882Z,97.39
2023-01-30T01:52:30.854Z,97.35
2023-01-30T01:53:30.862Z,97.35
2023-01-30T01:54:30.788Z,97.35
2023-01-30T01:55:30.850Z,97.35
2023-01-30T01:56:30.744Z,97.35
2023-01-30T01:57:30.802Z,97.35
2023-01-30T01:58:30.720Z,97.45
2023-01-30T01:59:30.775Z,97.45
2023-01-30T02:00:30.703Z,97.45
2023-01-30T02:01:30.763Z,97.45
2023-01-30T02:02:30.707Z,97.45
2023-01-30T02:03:30.706Z,97.45
2023-01-30T02:04:30.671Z,97.45
2023-01-30T02:05:30.676Z,97.45
2023-01-30T02:06:30.657Z,97.45
2023-01-30T02:07:30.658Z,97.45
2023-01-30T02:08:30.666Z,97.45
2023-01-30T02:09:30.619Z,97.45
2023-01-30T02:10:30.599Z,97.45
2023-01-30T02:11:30.828Z,97.45
2023-01-30T02:12:30.630Z,97.56
2023-01-30T02:13:30.582Z,97.56
2023-01-30T02:14:30.551Z,97.56
2023-01-30T02:15:30.569Z,97.52
2023-01-30T02:16:30.568Z,97.56
2023-01-30T02:17:30.579Z,97.56
2023-01-30T02:18:30.574Z,97.52
2023-01-30T02:19:30.512Z,97.52
2023-01-30T02:20:30.499Z,97.62
2023-01-30T02:21:30.587Z,97.62
2023-01-30T02:22:30.460Z,97.62
2023-01-30T02:23:30.502Z,97.62
2023-01-30T02:24:30.449Z,97.62
2023-01-30T02:25:30.460Z,97.62
2023-01-30T02:26:30.515Z,97.62
2023-01-30T02:27:30.436Z,97.62
2023-01-30T02:28:30.399Z,97.62
2023-01-30T02:29:30.422Z,97.62
2023-01-30T02:30:30.462Z,97.62
2023-01-30T02:31:30.461Z,97.62
2023-01-30T02:32:30.387Z,97.62
2023-01-30T02:33:30.364Z,97.62
2023-01-30T02:34:30.952Z,97.62
2023-01-30T02:35:30.338Z,97.72
2023-01-30T02:36:30.336Z,97.72
2023-01-30T02:37:30.346Z,97.72
2023-01-30T02:38:30.276Z,97.72
2023-01-30T02:39:30.306Z,97.72
2023-01-30T02:40:30.249Z,97.72
2023-01-30T02:41:30.295Z,97.72
2023-01-30T02:42:30.241Z,97.83
2023-01-30T02:43:30.268Z,97.83
2023-01-30T02:44:30.230Z,97.83
2023-01-30T02:45:30.269Z,97.94
2023-01-30T02:46:30.185Z,97.94
2023-01-30T02:47:30.231Z,97.94
2023-01-30T02:48:30.178Z,97.94
2023-01-30T02:49:30.345Z,98.04
2023-01-30T02:50:30.193Z,98.04
2023-01-30T02:51:30.941Z,98.04
2023-01-30T02:52:30.171Z,98.04
2023-01-30T02:53:31.004Z,98.04
2023-01-30T02:54:30.163Z,98.14
2023-01-30T02:55:30.157Z,98.14
2023-01-30T02:56:30.931Z,98.14
2023-01-30T02:57:30.110Z,98.14
2023-01-30T02:58:30.110Z,98.14
2023-01-30T02:59:30.070Z,98.25
2023-01-30T03:00:30.044Z,98.25
2023-01-30T03:01:30.163Z,98.25
2023-01-30T03:02:30.042Z,98.25
2023-01-30T03:03:30.040Z,98.35
2023-01-30T03:04:29.986Z,98.35
2023-01-30T03:05:30.009Z,98.35
2023-01-30T03:06:29.977Z,98.35
2023-01-30T03:07:29.979Z,98.46
2023-01-30T03:08:29.946Z,98.46
2023-01-30T03:09:30.068Z,98.56
2023-01-30T03:10:29.981Z,98.56
2023-01-30T03:11:29.983Z,98.56
2023-01-30T03:12:29.900Z,98.56
2023-01-30T03:13:29.930Z,98.67
2023-01-30T03:14:29.887Z,98.67
2023-01-30T03:15:29.913Z,98.67
2023-01-30T03:16:29.850Z,98.77
2023-01-30T03:17:29.895Z,98.77
2023-01-30T03:18:29.837Z,98.77
2023-01-30T03:19:29.850Z,98.88
2023-01-30T03:20:29.810Z,98.88
2023-01-30T03:21:29.865Z,98.88
2023-01-30T03:22:29.791Z,98.83
2023-01-30T03:23:29.802Z,98.83
2023-01-30T03:24:29.848Z,98.93
2023-01-30T03:25:29.807Z,98.93
2023-01-30T03:26:29.812Z,98.93
2023-01-30T03:27:29.801Z,98.93
2023-01-30T03:28:29.723Z,98.93
2023-01-30T03:29:29.808Z,98.93
2023-01-30T03:30:29.706Z,98.93
2023-01-30T03:31:29.844Z,99.04
2023-01-30T03:32:30.554Z,99.04
2023-01-30T03:33:30.449Z,99.04
2023-01-30T03:34:29.695Z,99.04
2023-01-30T03:35:29.692Z,99.04
2023-01-30T03:36:29.693Z,99.04
2023-01-30T03:37:29.642Z,99.04
2023-01-30T03:38:29.605Z,99.04
2023-01-30T03:39:29.665Z,99.04
2023-01-30T03:40:29.579Z,99.04
2023-01-30T03:41:29.624Z,99.04
2023-01-30T03:42:29.591Z,99.04
2023-01-30T03:43:29.567Z,99.04
2023-01-30T03:44:29.589Z,99.15
2023-01-30T03:45:29.548Z,99.15
2023-01-30T03:46:29.559Z,99.15
2023-01-30T03:47:29.525Z,99.15
2023-01-30T03:48:29.497Z,99.15
2023-01-30T03:49:29.558Z,99.15
2023-01-30T03:50:29.467Z,99.25
2023-01-30T03:51:29.491Z,99.25
2023-01-30T03:52:29.504Z,99.25
2023-01-30T03:53:29.486Z,99.25
2023-01-30T03:54:29.465Z,99.25
2023-01-30T03:55:29.467Z,99.25
2023-01-30T03:56:29.404Z,99.25
2023-01-30T03:57:29.484Z,99.35
2023-01-30T03:58:29.382Z,99.35
2023-01-30T03:59:29.399Z,99.35
2023-01-30T04:00:29.366Z,99.35
2023-01-30T04:01:29.396Z,99.35
2023-01-30T04:02:29.501Z,99.46
2023-01-30T04:03:29.354Z,99.46
2023-01-30T04:04:29.322Z,99.46
2023-01-30T04:05:29.333Z,99.46
2023-01-30T04:06:29.297Z,99.46
2023-01-30T04:07:29.322Z,99.46
2023-01-30T04:08:29.262Z,99.46
2023-01-30T04:09:29.276Z,99.56
2023-01-30T04:10:29.231Z,99.56
2023-01-30T04:11:29.267Z,99.56
2023-01-30T04:12:29.234Z,99.56
2023-01-30T04:13:30.203Z,99.56
2023-01-30T04:14:29.467Z,99.56
2023-01-30T04:15:29.207Z,99.56
2023-01-30T04:16:29.198Z,99.56
2023-01-30T04:17:29.194Z,99.66
2023-01-30T04:18:29.181Z,99.66
2023-01-30T04:19:29.171Z,99.66
2023-01-30T04:20:29.123Z,99.66
2023-01-30T04:21:29.146Z,99.66
2023-01-30T04:22:29.117Z,99.77
2023-01-30T04:23:29.212Z,99.77
2023-01-30T04:24:29.092Z,99.77
2023-01-30T04:25:29.101Z,99.77
2023-01-30T04:26:29.103Z,99.77
2023-01-30T04:27:29.082Z,99.73
2023-01-30T04:28:29.049Z,99.83
2023-01-30T04:29:29.140Z,99.83
2023-01-30T04:30:29.054Z,99.83
2023-01-30T04:31:29.112Z,99.83
2023-01-30T04:32:29.002Z,99.83
2023-01-30T04:33:29.028Z,99.93
2023-01-30T04:34:29.045Z,99.93
2023-01-30T04:35:28.992Z,99.93
2023-01-30T04:36:29.759Z,99.99
2023-01-30T04:37:28.991Z,99.99
2023-01-30T04:38:28.931Z,99.99
2023-01-30T04:39:28.955Z,99.99
2023-01-30T04:40:28.927Z,99.99
2023-01-30T04:41:28.923Z,99.99
2023-01-30T04:42:28.965Z,99.99
2023-01-30T04:43:28.892Z,99.99
2023-01-30T04:44:28.858Z,99.99
2023-01-30T04:45:30.181Z,99.99
2023-01-30T04:46:28.837Z,99.99
2023-01-30T04:47:28.984Z,99.99
2023-01-30T04:48:28.823Z,99.99
2023-01-30T04:49:28.837Z,99.99
2023-01-30T04:50:28.796Z,99.99
2023-01-30T04:51:28.844Z,99.99
2023-01-30T04:52:28.772Z,99.99
2023-01-30T04:53:28.856Z,99.99
2023-01-30T04:54:28.758Z,99.99
2023-01-30T04:55:28.760Z,99.99
2023-01-30T04:56:28.739Z,99.99
2023-01-30T04:57:28.761Z,99.99
2023-01-30T04:58:28.724Z,99.99
2023-01-30T04:59:28.764Z,99.99
2023-01-30T05:00:28.746Z,99.99
2023-01-30T05:01:28.693Z,99.99
2023-01-30T05:02:28.663Z,99.99
2023-01-30T05:03:28.687Z,99.99
2023-01-30T05:04:29.009Z,99.99
2023-01-30T05:05:28.649Z,99.99
2023-01-30T05:06:28.615Z,99.99
2023-01-30T05:07:28.676Z,99.99
2023-01-30T05:08:28.595Z,99.99
2023-01-30T05:09:28.599Z,99.99
2023-01-30T05:10:28.570Z,99.99
2023-01-30T05:11:28.577Z,99.99
2023-01-30T05:12:28.621Z,99.99
2023-01-30T05:13:28.554Z,99.99
2023-01-30T05:14:29.455Z,99.99
2023-01-30T05:15:28.975Z,99.99
2023-01-30T05:16:28.499Z,99.99
2023-01-30T05:17:28.521Z,99.99
2023-01-30T05:18:28.497Z,99.99
2023-01-30T05:19:28.494Z,99.99
2023-01-30T05:20:28.450Z,99.99
2023-01-30T05:21:28.479Z,99.99
2023-01-30T05:22:28.427Z,99.99
2023-01-30T05:23:28.504Z,99.99
2023-01-30T05:24:28.428Z,99.99
2023-01-30T05:25:28.514Z,99.99
2023-01-30T05:26:28.413Z,99.99
2023-01-30T05:27:28.394Z,99.99
2023-01-30T05:28:28.415Z,99.99
2023-01-30T05:29:29.274Z,99.99
2023-01-30T05:30:28.435Z,99.99
2023-01-30T05:31:28.379Z,99.99
2023-01-30T05:32:28.322Z,99.99
2023-01-30T05:33:28.323Z,99.99
2023-01-30T05:34:28.309Z,99.99
2023-01-30T05:35:28.355Z,99.99
2023-01-30T05:36:28.292Z,99.99
2023-01-30T05:37:28.273Z,99.99
2023-01-30T05:38:28.247Z,99.99
2023-01-30T05:39:28.269Z,99.99
2023-01-30T05:40:28.304Z,99.99
2023-01-30T05:41:28.253Z,99.99
2023-01-30T05:42:28.214Z,99.99
2023-01-30T05:43:28.232Z,99.99
2023-01-30T05:44:28.197Z,99.99
2023-01-30T05:45:28.200Z,99.99
2023-01-30T05:46:29.012Z,99.99
2023-01-30T05:47:28.175Z,99.99
2023-01-30T05:48:28.141Z,99.99
2023-01-30T05:49:28.167Z,99.99
2023-01-30T05:50:28.114Z,99.99
2023-01-30T05:51:28.131Z,99.99
2023-01-30T05:52:28.187Z,99.99
2023-01-30T05:53:28.119Z,99.99
2023-01-30T05:54:28.095Z,99.99
2023-01-30T05:55:28.906Z,99.99
2023-01-30T05:56:28.084Z,99.99
2023-01-30T05:57:28.130Z,99.99
2023-01-30T05:58:28.056Z,99.99
2023-01-30T05:59:28.009Z,99.99
2023-01-30T06:00:28.122Z,99.99
2023-01-30T06:01:27.994Z,99.99
2023-01-30T06:02:28.055Z,99.99
2023-01-30T06:03:27.999Z,99.99
2023-01-30T06:04:27.989Z,99.99
2023-01-30T06:05:27.986Z,99.99
2023-01-30T06:06:28.090Z,99.99
2023-01-30T06:07:28.098Z,99.99
2023-01-30T06:08:28.885Z,99.99
2023-01-30T06:09:27.986Z,99.99
2023-01-30T06:10:27.913Z,99.99
2023-01-30T06:11:28.569Z,99.99
2023-01-30T06:12:27.910Z,99.99
2023-01-30T06:13:28.752Z,99.99
2023-01-30T06:14:27.922Z,99.99
2023-01-30T06:15:27.849Z,99.99
2023-01-30T06:16:27.901Z,99.99
2023-01-30T06:17:29.946Z,99.99
2023-01-30T06:18:28.669Z,99.99
2023-01-30T06:19:28.595Z,99.99
2023-01-30T06:20:27.846Z,99.99
2023-01-30T06:21:27.758Z,99.99
2023-01-30T06:22:27.765Z,99.99
2023-01-30T06:23:27.745Z,99.99
2023-01-30T06:24:27.789Z,99.99
2023-01-30T06:25:27.719Z,99.99
2023-01-30T06:26:27.746Z,99.99
2023-01-30T06:27:27.702Z,99.99
2023-01-30T06:28:27.722Z,99.99
2023-01-30T06:29:27.720Z,99.99
2023-01-30T06:30:27.779Z,99.99
2023-01-30T06:31:27.689Z,99.99
2023-01-30T06:32:27.660Z,99.99
2023-01-30T06:33:27.725Z,99.99
2023-01-30T06:34:27.646Z,99.99
2023-01-30T06:35:28.316Z,99.99
2023-01-30T06:36:28.487Z,99.99
2023-01-30T06:37:27.626Z,99.99
2023-01-30T06:38:27.630Z,99.99
2023-01-30T06:39:28.481Z,99.99
2023-01-30T06:40:28.373Z,99.99
2023-01-30T06:41:27.576Z,99.99
2023-01-30T06:42:27.607Z,99.99
2023-01-30T06:43:28.345Z,99.99
2023-01-30T06:44:28.251Z,99.99
2023-01-30T06:45:28.404Z,99.99
2023-01-30T06:46:27.609Z,99.99
2023-01-30T06:47:28.209Z,99.99
2023-01-30T06:48:27.504Z,99.99
2023-01-30T06:49:27.498Z,99.99
2023-01-30T06:50:28.184Z,99.99
2023-01-30T06:51:28.344Z,99.99
2023-01-30T06:52:27.465Z,99.99
2023-01-30T06:53:27.487Z,99.99
2023-01-30T06:54:27.892Z,99.99
2023-01-30T06:55:27.377Z,99.99
2023-01-30T06:56:28.156Z,99.99
2023-01-30T06:57:28.275Z,99.99
2023-01-30T06:58:27.375Z,99.99
2023-01-30T06:59:27.376Z,99.99
2023-01-30T07:00:27.352Z,99.99
2023-01-30T07:01:28.950Z,99.99
2023-01-30T07:02:28.062Z,99.99
2023-01-30T07:03:27.349Z,99.99
2023-01-30T07:04:27.409Z,99.99
2023-01-30T07:05:27.295Z,99.99
2023-01-30T07:06:27.357Z,99.99
2023-01-30T07:07:27.244Z,99.99
2023-01-30T07:08:27.986Z,99.99
2023-01-30T07:09:27.237Z,99.99
2023-01-30T07:10:27.232Z,99.99
2023-01-30T07:11:27.226Z,99.99
2023-01-30T07:12:27.216Z,99.99
2023-01-30T07:13:27.204Z,99.99
2023-01-30T07:14:27.191Z,99.99
2023-01-30T07:15:27.166Z,99.99
2023-01-30T07:16:28.017Z,99.99
2023-01-30T07:17:27.874Z,99.99
2023-01-30T07:18:28.041Z,99.99
2023-01-30T07:19:27.994Z,99.99
2023-01-30T07:20:27.136Z,99.99
2023-01-30T07:21:27.085Z,99.99
2023-01-30T07:22:27.184Z,99.99
2023-01-30T07:23:27.063Z,99.99
2023-01-30T07:24:28.019Z,99.99
2023-01-30T07:25:27.079Z,99.99
2023-01-30T07:26:27.799Z,99.99
2023-01-30T07:27:27.077Z,99.99
2023-01-30T07:28:27.034Z,99.99
2023-01-30T07:29:27.004Z,99.99
2023-01-30T07:30:27.136Z,99.99
2023-01-30T07:31:27.008Z,99.99
2023-01-30T07:32:27.543Z,99.99
2023-01-30T07:33:26.963Z,99.99
2023-01-30T07:34:26.971Z,99.99
2023-01-30T07:35:27.026Z,99.99
2023-01-30T07:36:26.967Z,99.99
2023-01-30T07:37:26.952Z,99.99
2023-01-30T07:38:27.725Z,99.99
2023-01-30T07:39:26.896Z,99.99
2023-01-30T07:40:26.956Z,99.99
2023-01-30T07:41:26.886Z,99.99
2023-01-30T07:42:27.784Z,99.99
2023-01-30T07:43:26.890Z,99.99
2023-01-30T07:44:26.860Z,99.99
2023-01-30T07:45:26.822Z,99.99
2023-01-30T07:46:27.673Z,99.99
2023-01-30T07:47:27.550Z,99.99
2023-01-30T07:48:27.723Z,99.99
2023-01-30T07:49:27.655Z,99.99
2023-01-30T07:50:26.829Z,99.99
2023-01-30T07:51:26.768Z,99.99
2023-01-30T07:52:27.472Z,99.99
2023-01-30T07:53:27.431Z,99.99
2023-01-30T07:54:27.649Z,99.99
2023-01-30T07:55:27.589Z,99.99
2023-01-30T07:56:26.719Z,99.99
2023-01-30T07:57:27.639Z,99.99
2023-01-30T07:58:26.719Z,99.99
2023-01-30T07:59:27.421Z,99.99
2023-01-30T08:00:27.601Z,99.99
2023-01-30T08:01:26.711Z,99.99
2023-01-30T08:02:34.245Z,99.99
2023-01-30T08:03:26.633Z,99.99
2023-01-30T08:04:27.066Z,99.99
2023-01-30T08:05:27.027Z,99.99
2023-01-30T08:06:27.521Z,99.99
2023-01-30T08:07:26.585Z,99.91
2023-01-30T08:08:26.583Z,99.91
2023-01-30T08:09:26.859Z,99.80
2023-01-30T08:10:26.564Z,99.70
2023-01-30T08:11:26.541Z,99.49
2023-01-30T08:12:27.395Z,99.38
2023-01-30T08:13:27.401Z,99.28
2023-01-30T08:14:26.544Z,99.18
2023-01-30T08:15:26.519Z,99.07
2023-01-30T08:16:26.550Z,99.07
2023-01-30T08:17:26.482Z,98.97
2023-01-30T08:18:26.496Z,98.97
2023-01-30T08:19:27.316Z,98.97
2023-01-30T08:20:26.497Z,98.86
2023-01-30T08:21:26.432Z,98.86
2023-01-30T08:22:26.438Z,98.97
2023-01-30T08:23:27.167Z,98.86
2023-01-30T08:24:26.866Z,98.97
2023-01-30T08:25:27.071Z,98.86
2023-01-30T08:26:26.410Z,98.86
2023-01-30T08:27:26.377Z,98.86
2023-01-30T08:28:27.236Z,98.72
2023-01-30T08:29:26.462Z,98.72
2023-01-30T08:30:26.409Z,98.61
2023-01-30T08:31:26.345Z,98.61
2023-01-30T08:32:26.352Z,98.61
2023-01-30T08:33:26.291Z,98.51
2023-01-30T08:34:26.379Z,98.51
2023-01-30T08:35:26.363Z,98.41
2023-01-30T08:36:27.218Z,98.41
2023-01-30T08:37:26.261Z,98.41
2023-01-30T08:38:26.262Z,98.41
2023-01-30T08:39:27.194Z,98.41
2023-01-30T08:40:26.254Z,98.30
2023-01-30T08:41:26.465Z,98.30
2023-01-30T08:42:26.255Z,98.30
2023-01-30T08:43:26.192Z,98.30
2023-01-30T08:44:26.221Z,98.30
2023-01-30T08:45:26.192Z,98.26
2023-01-30T08:46:26.237Z,98.20
2023-01-30T08:47:26.498Z,98.16
2023-01-30T08:48:28.176Z,98.16
2023-01-30T08:49:26.176Z,98.05
2023-01-30T08:50:26.197Z,97.95
2023-01-30T08:51:26.115Z,97.85
2023-01-30T08:52:26.117Z,97.85
2023-01-30T08:53:26.090Z,97.74
2023-01-30T08:54:26.122Z,97.74
2023-01-30T08:55:26.163Z,97.64
2023-01-30T08:56:26.062Z,97.53
2023-01-30T08:57:26.066Z,97.53
2023-01-30T08:58:26.899Z,97.43
2023-01-30T08:59:26.798Z,97.33
2023-01-30T09:00:26.070Z,97.22
2023-01-30T09:01:26.030Z,97.22
2023-01-30T09:02:26.130Z,97.12
2023-01-30T09:03:25.997Z,97.07
2023-01-30T09:04:26.133Z,97.07
2023-01-30T09:05:25.960Z,96.97
2023-01-30T09:06:26.427Z,96.76
2023-01-30T09:07:25.924Z,96.66
2023-01-30T09:08:25.932Z,96.66
2023-01-30T09:09:25.932Z,96.55
2023-01-30T09:10:25.949Z,96.45
2023-01-30T09:11:25.888Z,96.45
2023-01-30T09:12:25.926Z,96.45
2023-01-30T09:13:26.076Z,96.34
2023-01-30T09:14:25.860Z,96.14
2023-01-30T09:15:26.118Z,95.89
2023-01-30T09:16:25.899Z,95.89
2023-01-30T09:17:25.821Z,95.68
2023-01-30T09:18:25.852Z,95.32
2023-01-30T09:19:26.119Z,95.01
2023-01-30T09:20:26.613Z,94.70
2023-01-30T09:21:26.109Z,94.08
2023-01-30T09:22:26.722Z,93.56
2023-01-30T09:23:25.752Z,92.74
2023-01-30T09:24:26.217Z,92.53
2023-01-30T09:25:25.725Z,92.43
2023-01-30T09:26:26.525Z,92.22
2023-01-30T09:27:25.726Z,92.11
2023-01-30T09:28:25.697Z,91.45
2023-01-30T09:29:25.680Z,91.24
2023-01-30T09:30:25.744Z,91.24
2023-01-30T09:31:26.653Z,91.35
2023-01-30T09:32:25.664Z,91.20
2023-01-30T09:33:25.638Z,91.20
2023-01-30T09:34:25.638Z,90.78
2023-01-30T09:35:25.596Z,90.23
2023-01-30T09:36:25.856Z,89.81
2023-01-30T09:37:26.488Z,89.46
2023-01-30T09:38:25.626Z,88.64
2023-01-30T09:39:25.817Z,88.32
2023-01-30T09:40:25.564Z,88.28
2023-01-30T09:41:25.567Z,87.97
2023-01-30T09:42:25.561Z,87.87
2023-01-30T09:43:25.983Z,87.46
2023-01-30T09:44:25.866Z,87.52
2023-01-30T09:45:25.522Z,87.41
2023-01-30T09:46:25.535Z,86.94
2023-01-30T09:47:25.466Z,86.42
2023-01-30T09:48:26.187Z,86.63
2023-01-30T09:49:25.442Z,86.32
2023-01-30T09:50:25.455Z,86.57
2023-01-30T09:51:25.417Z,87.08
2023-01-30T09:52:25.708Z,86.88
2023-01-30T09:53:25.812Z,87.08
2023-01-30T09:54:25.435Z,87.39
2023-01-30T09:55:25.373Z,87.60
2023-01-30T09:56:25.979Z,87.60
2023-01-30T09:57:25.349Z,87.49
2023-01-30T09:58:26.064Z,86.98
2023-01-30T09:59:25.447Z,86.91
2023-01-30T10:00:26.011Z,87.02
2023-01-30T10:01:26.233Z,86.91
2023-01-30T10:02:25.322Z,87.12
2023-01-30T10:03:26.093Z,87.12
2023-01-30T10:04:26.230Z,87.33
2023-01-30T10:05:25.247Z,87.78
2023-01-30T10:06:25.395Z,87.99
2023-01-30T10:07:25.250Z,88.20
2023-01-30T10:08:25.510Z,88.20
2023-01-30T10:09:25.484Z,88.30
2023-01-30T10:10:26.149Z,88.09
2023-01-30T10:11:25.247Z,87.74
2023-01-30T10:12:25.640Z,87.54
2023-01-30T10:13:25.215Z,87.43
2023-01-30T10:14:25.163Z,87.43
2023-01-30T10:15:25.357Z,87.23
2023-01-30T10:16:25.381Z,87.06
2023-01-30T10:17:25.141Z,86.75
2023-01-30T10:18:25.093Z,86.75
2023-01-30T10:19:35.250Z,86.54
2023-01-30T10:20:26.189Z,86.65
2023-01-30T10:21:25.848Z,86.96
2023-01-30T10:22:25.208Z,87.06
2023-01-30T10:23:25.103Z,86.96
2023-01-30T10:24:25.069Z,87.16
2023-01-30T10:25:25.042Z,86.96
2023-01-30T10:26:25.930Z,87.06
2023-01-30T10:27:25.020Z,87.16
2023-01-30T10:28:24.983Z,87.27
2023-01-30T10:29:25.001Z,87.47
2023-01-30T10:30:25.126Z,86.96
2023-01-30T10:31:25.019Z,86.75
2023-01-30T10:32:25.051Z,86.75
2023-01-30T10:33:24.968Z,86.96
2023-01-30T10:34:24.921Z,87.16
2023-01-30T10:35:26.216Z,87.16
2023-01-30T10:36:24.894Z,87.27
2023-01-30T10:37:25.200Z,86.96
2023-01-30T10:38:24.884Z,86.96
2023-01-30T10:39:24.897Z,86.96
2023-01-30T10:40:24.866Z,87.27
2023-01-30T10:41:25.703Z,86.65
2023-01-30T10:42:24.842Z,86.33
2023-01-30T10:43:25.779Z,86.02
2023-01-30T10:44:24.929Z,86.02
2023-01-30T10:45:24.812Z,86.23
2023-01-30T10:46:24.814Z,86.02
2023-01-30T10:47:26.468Z,85.71
2023-01-30T10:48:37.815Z,85.82
2023-01-30T10:49:25.775Z,85.86
2023-01-30T10:50:24.730Z,85.75
2023-01-30T10:51:24.779Z,85.65
2023-01-30T10:52:24.711Z,85.86
2023-01-30T10:53:24.989Z,85.96
2023-01-30T10:54:24.986Z,86.07
2023-01-30T10:55:36.494Z,86.17
2023-01-30T10:56:25.655Z,86.47
2023-01-30T10:57:24.699Z,86.27
2023-01-30T10:58:24.639Z,86.37
2023-01-30T10:59:24.860Z,85.75
2023-01-30T11:00:24.663Z,85.75
2023-01-30T11:01:24.666Z,85.96
2023-01-30T11:02:24.647Z,85.86
2023-01-30T11:03:24.961Z,86.07
2023-01-30T11:04:25.059Z,85.96
2023-01-30T11:05:24.597Z,85.75
2023-01-30T11:06:24.546Z,85.86
2023-01-30T11:07:24.551Z,85.55
2023-01-30T11:08:24.509Z,84.20
2023-01-30T11:09:24.744Z,83.89
2023-01-30T11:10:24.534Z,83.89
2023-01-30T11:11:24.557Z,83.78
2023-01-30T11:12:24.515Z,84.30
2023-01-30T11:13:24.488Z,84.30
2023-01-30T11:14:24.497Z,84.20
2023-01-30T11:15:24.545Z,84.41
2023-01-30T11:16:24.515Z,84.72
2023-01-30T11:17:24.459Z,85.38
2023-01-30T11:19:17.321Z,85.89
2023-01-30T11:19:25.431Z,86.00
2023-01-30T11:20:24.403Z,84.55
2023-01-30T11:21:26.984Z,84.75
2023-01-30T11:22:25.377Z,85.58
2023-01-30T11:23:25.245Z,85.89
2023-01-30T11:24:24.359Z,85.69
2023-01-30T11:25:24.365Z,85.48
2023-01-30T11:26:29.471Z,85.79
2023-01-30T11:27:25.452Z,85.89
2023-01-30T11:28:24.629Z,86.21
2023-01-30T11:29:24.324Z,86.10
2023-01-30T11:30:24.415Z,85.69
2023-01-30T11:31:40.000Z,85.69
2023-01-30T11:32:25.372Z,86.21
2023-01-30T11:33:24.346Z,85.96
2023-01-30T11:34:24.246Z,86.27
2023-01-30T11:35:24.377Z,86.58
2023-01-30T11:36:24.207Z,86.37
2023-01-30T11:37:24.366Z,86.37
2023-01-30T11:38:24.203Z,85.75
2023-01-30T11:39:24.226Z,85.75
2023-01-30T11:40:24.191Z,86.07
2023-01-30T11:41:24.197Z,86.47
2023-01-30T11:42:24.958Z,86.41
2023-01-30T11:43:24.165Z,86.72
2023-01-30T11:44:24.113Z,87.14
2023-01-30T11:45:24.154Z,87.04
2023-01-30T11:46:24.094Z,87.24
2023-01-30T11:47:24.149Z,86.83
2023-01-30T11:49:02.732Z,86.83
2023-01-30T11:49:46.040Z,87.04
2023-01-30T11:50:28.722Z,87.18
2023-01-30T11:51:25.105Z,87.49
2023-01-30T11:52:24.082Z,86.76
2023-01-30T11:53:24.067Z,86.76
2023-01-30T11:54:24.010Z,86.87
2023-01-30T11:55:24.045Z,87.18
2023-01-30T11:56:23.994Z,86.97
2023-01-30T11:57:23.986Z,86.76
2023-01-30T11:58:23.993Z,86.97
2023-01-30T11:59:23.996Z,86.76
2023-01-30T12:00:23.996Z,86.76
2023-01-30T12:01:23.946Z,86.66
2023-01-30T12:02:23.968Z,86.55
2023-01-30T12:03:24.160Z,86.66
2023-01-30T12:04:23.945Z,86.66
2023-01-30T12:05:23.950Z,86.76
2023-01-30T12:06:23.858Z,86.97
2023-01-30T12:07:23.888Z,86.45
2023-01-30T12:08:39.382Z,86.66
2023-01-30T12:09:24.843Z,87.07
2023-01-30T12:10:23.823Z,86.72
2023-01-30T12:11:23.846Z,86.76
2023-01-30T12:12:23.809Z,86.52
2023-01-30T12:13:23.802Z,85.27
2023-01-30T12:14:23.787Z,84.55
2023-01-30T12:15:23.814Z,84.13
2023-01-30T12:16:23.784Z,84.23
2023-01-30T12:17:23.760Z,84.23
2023-01-30T12:18:23.823Z,84.34
2023-01-30T12:19:23.763Z,84.13
2023-01-30T12:20:23.711Z,84.34
2023-01-30T12:21:23.698Z,84.96
2023-01-30T12:22:23.688Z,84.96
2023-01-30T12:23:24.073Z,84.55
2023-01-30T12:24:24.517Z,84.75
2023-01-30T12:25:24.434Z,83.93
2023-01-30T12:26:23.681Z,83.51
2023-01-30T12:27:23.649Z,84.03
2023-01-30T12:28:23.632Z,84.34
2023-01-30T12:29:23.615Z,84.34
2023-01-30T12:30:23.593Z,84.55
2023-01-30T12:31:23.585Z,84.65
2023-01-30T12:32:23.599Z,83.62
2023-01-30T12:33:23.636Z,84.03
2023-01-30T12:34:27.067Z,84.23
2023-01-30T12:35:23.590Z,83.47
2023-01-30T12:36:23.530Z,83.37
2023-01-30T12:37:23.564Z,82.86
2023-01-30T12:38:23.851Z,83.16
2023-01-30T12:39:23.512Z,83.16
2023-01-30T12:40:23.980Z,83.06
2023-01-30T12:41:23.504Z,82.65
2023-01-30T12:42:25.632Z,83.06
2023-01-30T12:43:23.469Z,82.86
2023-01-30T12:44:23.450Z,82.95
2023-01-30T12:45:23.459Z,83.58
2023-01-30T12:46:23.480Z,83.68
2023-01-30T12:47:23.431Z,82.54
2023-01-30T12:48:23.428Z,83.06
2023-01-30T12:49:23.395Z,83.58
2023-01-30T12:50:23.398Z,83.89
2023-01-30T12:51:23.405Z,83.37
2023-01-30T12:52:23.347Z,83.68
2023-01-30T12:53:23.378Z,84.09